Time;durP1;ratioP1;P1;durP2;ratioP2;P2;SDS_P1;SDS_P2;PMS_P1;PMS_P2;Temp;Humidity;BMP_temperature;BMP_pressure;BME280_temperature;BME280_humidity;BME280_pressure;Samples;Min_cycle;Max_cycle;Signal;HPM_P1;HPM_P2
2023/04/08 00:00:34;;;;;;;;;;;10.70;43.00;;;;;;5015401;28;19925;-58
2023/04/08 00:03:00;;;;;;;;;;;10.70;43.00;;;;;;5016643;28;19925;-57
2023/04/08 00:05:25;;;;;;;;;;;10.80;42.90;;;;;;5015364;28;20323;-58
2023/04/08 00:07:51;;;;;;;;;;;10.90;42.80;;;;;;5019861;28;19925;-62
2023/04/08 00:10:16;;;;;;;;;;;11.00;42.70;;;;;;5035115;28;20023;-58
2023/04/08 00:12:41;;;;;;;;;;;11.10;42.60;;;;;;5029172;28;19918;-58
2023/04/08 00:15:07;;;;;;;;;;;11.10;42.50;;;;;;5015067;28;20008;-58
2023/04/08 00:17:32;;;;;;;;;;;11.20;42.40;;;;;;5018443;28;19917;-58
2023/04/08 00:19:58;;;;;;;;;;;11.30;42.40;;;;;;5034808;28;19956;-58
2023/04/08 00:22:23;;;;;;;;;;;11.30;42.30;;;;;;5033406;28;20008;-58
2023/04/08 00:24:49;;;;;;;;;;;11.30;42.30;;;;;;5034546;28;20008;-58
2023/04/08 00:27:14;;;;;;;;;;;11.40;42.20;;;;;;5029975;28;19917;-59
2023/04/08 00:29:40;;;;;;;;;;;11.40;42.20;;;;;;5034554;28;19909;-59
2023/04/08 00:32:06;;;;;;;;;;;11.40;42.20;;;;;;5028668;28;20008;-58
2023/04/08 00:34:31;;;;;;;;;;;11.50;42.10;;;;;;5032383;28;20032;-57
2023/04/08 00:36:57;;;;;;;;;;;11.50;42.10;;;;;;5054060;28;19985;-57
2023/04/08 00:39:22;;;;;;;;;;;11.50;42.00;;;;;;5048885;28;19916;-57
2023/04/08 00:41:47;;;;;;;;;;;11.50;42.00;;;;;;5029257;28;19939;-57
2023/04/08 00:44:13;;;;;;;;;;;11.50;42.00;;;;;;5028832;28;20336;-57
2023/04/08 00:46:39;;;;;;;;;;;11.60;42.10;;;;;;5028781;28;20429;-57
2023/04/08 00:49:06;;;;;;;;;;;11.60;42.00;;;;;;5035121;28;19932;-56
2023/04/08 00:51:32;;;;;;;;;;;11.50;42.10;;;;;;5032625;28;19921;-57
2023/04/08 00:53:59;;;;;;;;;;;11.60;42.10;;;;;;5034275;28;20414;-58
2023/04/08 00:56:25;;;;;;;;;;;11.60;42.00;;;;;;5033987;28;20051;-58
2023/04/08 00:58:53;;;;;;;;;;;11.60;42.00;;;;;;5033975;28;19952;-59
2023/04/08 01:01:31;;;;;;;;;;;11.70;42.00;;;;;;5034352;28;19948;-58
2023/04/08 01:04:04;;;;;;;;;;;11.70;41.90;;;;;;5033753;28;19928;-58
2023/04/08 01:06:50;;;;;;;;;;;11.70;42.00;;;;;;5034025;28;19917;-58
2023/04/08 01:09:20;;;;;;;;;;;11.80;42.00;;;;;;5033459;28;19959;-58
2023/04/08 01:11:48;;;;;;;;;;;11.80;42.00;;;;;;5038792;28;20798;-58
2023/04/08 01:14:16;;;;;;;;;;;11.80;41.90;;;;;;5040640;28;20010;-58
2023/04/08 01:16:42;;;;;;;;;;;11.90;41.90;;;;;;5033774;28;19909;-58
2023/04/08 01:19:09;;;;;;;;;;;11.90;41.90;;;;;;5013720;28;20372;-61
2023/04/08 01:21:36;;;;;;;;;;;11.90;42.00;;;;;;5013635;28;20420;-59
2023/04/08 01:24:10;;;;;;;;;;;11.90;41.90;;;;;;5013545;28;19918;-59
2023/04/08 01:26:36;;;;;;;;;;;12.00;41.90;;;;;;5013939;28;19916;-59
2023/04/08 01:29:02;;;;;;;;;;;12.00;41.90;;;;;;5015572;28;20008;-58
2023/04/08 01:31:29;;;;;;;;;;;12.00;41.90;;;;;;5053691;28;19955;-58
2023/04/08 01:33:55;;;;;;;;;;;12.00;41.90;;;;;;5053517;28;19916;-58
2023/04/08 01:36:21;;;;;;;;;;;12.00;41.80;;;;;;5037405;28;19913;-58
2023/04/08 01:38:48;;;;;;;;;;;12.10;41.90;;;;;;5033258;28;19971;-57
2023/04/08 01:41:14;;;;;;;;;;;12.10;41.80;;;;;;5033353;28;19960;-58
2023/04/08 01:43:40;;;;;;;;;;;12.10;41.80;;;;;;5033171;28;19925;-58
2023/04/08 01:46:07;;;;;;;;;;;12.20;41.80;;;;;;5032974;28;20000;-58
2023/04/08 01:48:33;;;;;;;;;;;12.20;41.80;;;;;;5033434;28;20385;-58
2023/04/08 01:50:59;;;;;;;;;;;12.20;41.70;;;;;;5033087;28;19909;-58
2023/04/08 01:53:25;;;;;;;;;;;12.20;41.80;;;;;;5032051;28;19967;-58
2023/04/08 01:55:54;;;;;;;;;;;12.30;41.80;;;;;;5032783;28;19957;-58
2023/04/08 01:58:20;;;;;;;;;;;12.30;41.70;;;;;;5032872;28;19983;-58
2023/04/08 02:00:46;;;;;;;;;;;12.30;41.70;;;;;;5033032;28;19916;-58
2023/04/08 02:03:12;;;;;;;;;;;12.30;41.70;;;;;;5032767;28;20373;-57
2023/04/08 02:05:38;;;;;;;;;;;12.40;41.70;;;;;;5034536;28;19909;-56
2023/04/08 02:08:03;;;;;;;;;;;12.30;41.80;;;;;;5052561;28;19927;-57
2023/04/08 02:10:29;;;;;;;;;;;12.40;41.90;;;;;;5034109;28;20305;-57
2023/04/08 02:12:54;;;;;;;;;;;12.40;42.00;;;;;;5017866;28;20352;-56
2023/04/08 02:15:20;;;;;;;;;;;12.40;42.10;;;;;;5027447;28;19909;-57
2023/04/08 02:17:51;;;;;;;;;;;12.40;42.30;;;;;;5032418;28;19917;-57
2023/04/08 02:20:20;;;;;;;;;;;12.40;42.20;;;;;;5032730;28;20395;-57
2023/04/08 02:23:04;;;;;;;;;;;12.40;42.30;;;;;;5032649;28;20415;-57
2023/04/08 02:25:33;;;;;;;;;;;12.50;42.30;;;;;;5025694;28;19917;-57
2023/04/08 02:28:00;;;;;;;;;;;12.50;42.40;;;;;;5021142;28;19921;-58
2023/04/08 02:30:26;;;;;;;;;;;12.50;42.40;;;;;;5015972;28;19948;-57
2023/04/08 02:32:53;;;;;;;;;;;12.50;42.50;;;;;;5032183;28;20048;-57
2023/04/08 02:35:19;;;;;;;;;;;12.50;42.50;;;;;;5032640;28;20328;-57
2023/04/08 02:37:47;;;;;;;;;;;12.50;42.40;;;;;;5032063;28;19924;-58
2023/04/08 02:40:31;;;;;;;;;;;12.60;42.60;;;;;;5032451;28;19967;-58
2023/04/08 02:42:57;;;;;;;;;;;12.60;43.10;;;;;;5031926;28;19924;-58
2023/04/08 02:45:27;;;;;;;;;;;12.50;43.50;;;;;;5032231;28;19916;-58
2023/04/08 02:47:52;;;;;;;;;;;12.50;43.70;;;;;;5031809;28;19928;-58
2023/04/08 02:50:17;;;;;;;;;;;12.60;43.90;;;;;;5032498;28;20308;-58
2023/04/08 02:52:43;;;;;;;;;;;12.60;44.30;;;;;;5030081;28;19924;-58
2023/04/08 02:55:10;;;;;;;;;;;12.50;44.60;;;;;;5018875;28;19920;-58
2023/04/08 02:57:36;;;;;;;;;;;12.60;44.90;;;;;;5017178;28;19917;-58
2023/04/08 03:00:03;;;;;;;;;;;12.60;45.20;;;;;;5023280;28;19909;-58
2023/04/08 03:02:28;;;;;;;;;;;12.60;45.40;;;;;;5025609;28;19999;-61
2023/04/08 03:04:53;;;;;;;;;;;12.60;45.60;;;;;;5025070;28;20008;-58
2023/04/08 03:07:19;;;;;;;;;;;12.60;45.90;;;;;;5022820;28;19917;-58
2023/04/08 03:09:45;;;;;;;;;;;12.60;45.90;;;;;;5018298;28;19963;-59
2023/04/08 03:12:10;;;;;;;;;;;12.60;46.30;;;;;;5032016;28;19915;-60
2023/04/08 03:14:36;;;;;;;;;;;12.60;46.20;;;;;;5031673;28;19909;-58
2023/04/08 03:17:01;;;;;;;;;;;12.60;46.10;;;;;;5028220;28;19914;-58
2023/04/08 03:19:27;;;;;;;;;;;12.60;46.30;;;;;;5015550;28;19921;-58
2023/04/08 03:21:52;;;;;;;;;;;12.60;46.60;;;;;;5024009;28;19909;-58
2023/04/08 03:24:17;;;;;;;;;;;12.60;46.70;;;;;;5031813;28;20372;-58
2023/04/08 03:26:43;;;;;;;;;;;12.60;46.60;;;;;;5031480;28;19909;-57
2023/04/08 03:29:08;;;;;;;;;;;12.70;46.60;;;;;;5031449;28;19967;-58
2023/04/08 03:31:34;;;;;;;;;;;12.60;46.80;;;;;;5031838;28;20006;-62
2023/04/08 03:34:00;;;;;;;;;;;12.60;46.70;;;;;;5031435;28;19921;-59
2023/04/08 03:36:25;;;;;;;;;;;12.70;46.70;;;;;;5047897;28;20280;-58
2023/04/08 03:38:51;;;;;;;;;;;12.70;47.00;;;;;;5033146;28;19928;-58
2023/04/08 03:41:16;;;;;;;;;;;12.60;47.00;;;;;;5031784;28;19909;-58
2023/04/08 03:43:42;;;;;;;;;;;12.60;47.20;;;;;;5031368;28;19976;-58
2023/04/08 03:46:07;;;;;;;;;;;12.60;47.60;;;;;;5031481;28;20365;-57
2023/04/08 03:48:32;;;;;;;;;;;12.50;47.90;;;;;;5031715;28;19921;-58
2023/04/08 03:50:58;;;;;;;;;;;12.50;48.10;;;;;;5031640;28;19963;-62
2023/04/08 03:53:23;;;;;;;;;;;12.50;48.10;;;;;;5031518;28;19956;-58
2023/04/08 03:55:52;;;;;;;;;;;12.50;48.00;;;;;;5031457;28;20316;-58
2023/04/08 03:58:17;;;;;;;;;;;12.50;48.10;;;;;;5031347;28;20302;-66
2023/04/08 04:00:43;;;;;;;;;;;12.50;48.20;;;;;;5031312;28;19916;-58
2023/04/08 04:03:11;;;;;;;;;;;12.50;48.30;;;;;;5026952;28;19917;-57
2023/04/08 04:05:37;;;;;;;;;;;12.50;48.40;;;;;;5017759;28;19983;-59
2023/04/08 04:08:03;;;;;;;;;;;12.60;48.30;;;;;;5027058;28;19925;-58
2023/04/08 04:10:28;;;;;;;;;;;12.50;48.50;;;;;;5031237;28;19916;-57
2023/04/08 04:12:54;;;;;;;;;;;12.60;48.40;;;;;;5031105;28;19924;-58
2023/04/08 04:15:19;;;;;;;;;;;12.60;48.40;;;;;;5030718;28;19913;-58
2023/04/08 04:17:46;;;;;;;;;;;12.50;48.50;;;;;;5034985;28;19917;-58
2023/04/08 04:20:12;;;;;;;;;;;12.50;48.50;;;;;;5034721;28;19952;-58
2023/04/08 04:22:37;;;;;;;;;;;12.50;48.70;;;;;;5034622;28;19991;-58
2023/04/08 04:25:03;;;;;;;;;;;12.50;48.60;;;;;;5035094;28;19916;-58
2023/04/08 04:27:28;;;;;;;;;;;12.50;48.60;;;;;;5034694;28;19964;-58
2023/04/08 04:29:54;;;;;;;;;;;12.50;48.60;;;;;;5034986;28;19916;-57
2023/04/08 04:32:19;;;;;;;;;;;12.50;48.60;;;;;;5034710;28;19917;-58
2023/04/08 04:34:45;;;;;;;;;;;12.50;48.70;;;;;;5037362;28;19917;-58
2023/04/08 04:37:10;;;;;;;;;;;12.50;48.70;;;;;;5050186;28;19913;-58
2023/04/08 04:39:36;;;;;;;;;;;12.60;48.70;;;;;;5034728;28;19944;-58
2023/04/08 04:42:02;;;;;;;;;;;12.60;48.80;;;;;;5035064;28;19916;-58
2023/04/08 04:44:27;;;;;;;;;;;12.50;48.90;;;;;;5034509;28;19921;-58
2023/04/08 04:46:53;;;;;;;;;;;12.60;48.90;;;;;;5034374;28;20389;-58
2023/04/08 04:49:18;;;;;;;;;;;12.50;49.00;;;;;;5034316;28;20388;-58
2023/04/08 04:51:44;;;;;;;;;;;12.60;49.00;;;;;;5034285;28;20326;-58
2023/04/08 04:54:09;;;;;;;;;;;12.50;49.10;;;;;;5034049;28;20495;-59
2023/04/08 04:56:34;;;;;;;;;;;12.50;49.20;;;;;;5034622;28;20015;-58
2023/04/08 04:59:00;;;;;;;;;;;12.50;49.10;;;;;;5033851;28;20396;-59
2023/04/08 05:01:25;;;;;;;;;;;12.60;49.10;;;;;;5034119;28;19910;-59
2023/04/08 05:03:51;;;;;;;;;;;12.60;49.10;;;;;;5033899;28;19917;-58
2023/04/08 05:06:16;;;;;;;;;;;12.60;49.20;;;;;;5034076;28;20297;-58
2023/04/08 05:08:42;;;;;;;;;;;12.60;49.30;;;;;;5033872;28;19968;-59
2023/04/08 05:11:10;;;;;;;;;;;12.60;49.40;;;;;;5034393;28;19952;-58
2023/04/08 05:13:35;;;;;;;;;;;12.60;49.40;;;;;;5033833;28;19921;-58
2023/04/08 05:16:01;;;;;;;;;;;12.60;49.30;;;;;;5034246;28;19909;-58
2023/04/08 05:18:26;;;;;;;;;;;12.70;49.30;;;;;;5033914;28;19918;-58
2023/04/08 05:20:52;;;;;;;;;;;12.70;49.30;;;;;;5032447;28;19909;-58
2023/04/08 05:23:17;;;;;;;;;;;12.70;49.30;;;;;;5033674;28;19996;-59
2023/04/08 05:25:43;;;;;;;;;;;12.70;49.30;;;;;;5034163;28;19951;-56
2023/04/08 05:28:08;;;;;;;;;;;12.70;49.30;;;;;;5032604;28;19932;-57
2023/04/08 05:30:34;;;;;;;;;;;12.70;49.30;;;;;;5033661;28;19913;-68
2023/04/08 05:32:59;;;;;;;;;;;12.70;49.30;;;;;;5033392;28;19921;-58
2023/04/08 05:35:28;;;;;;;;;;;12.80;49.30;;;;;;5041852;28;19909;-58
2023/04/08 05:37:53;;;;;;;;;;;12.80;49.30;;;;;;5053239;28;20011;-57
2023/04/08 05:40:19;;;;;;;;;;;12.70;49.20;;;;;;5053104;28;19964;-57
2023/04/08 05:42:45;;;;;;;;;;;12.80;49.30;;;;;;5053318;28;19917;-57
2023/04/08 05:45:10;;;;;;;;;;;12.80;49.30;;;;;;5053203;28;19909;-57
2023/04/08 05:47:36;;;;;;;;;;;12.80;49.40;;;;;;5053024;28;19917;-57
2023/04/08 05:50:01;;;;;;;;;;;12.80;49.50;;;;;;5053084;28;19909;-57
2023/04/08 05:52:26;;;;;;;;;;;12.70;49.50;;;;;;5052970;28;20353;-58
2023/04/08 05:54:54;;;;;;;;;;;12.70;49.60;;;;;;5052526;28;21295;-57
2023/04/08 05:57:19;;;;;;;;;;;12.70;49.60;;;;;;5052920;28;20249;-57
2023/04/08 05:59:45;;;;;;;;;;;12.80;49.50;;;;;;5045951;28;19919;-58
2023/04/08 06:02:10;;;;;;;;;;;12.80;49.50;;;;;;5032924;28;19909;-57
2023/04/08 06:04:36;;;;;;;;;;;12.80;49.50;;;;;;5032965;28;19913;-57
2023/04/08 06:07:02;;;;;;;;;;;12.90;49.40;;;;;;5032667;28;19916;-57
2023/04/08 06:09:28;;;;;;;;;;;12.90;49.40;;;;;;5032729;28;20377;-57
2023/04/08 06:11:53;;;;;;;;;;;13.00;49.30;;;;;;5031720;28;20023;-57
2023/04/08 06:14:19;;;;;;;;;;;13.00;49.20;;;;;;5032912;28;20125;-63
2023/04/08 06:16:45;;;;;;;;;;;13.00;49.20;;;;;;5032952;28;19910;-58
2023/04/08 06:19:10;;;;;;;;;;;13.00;49.20;;;;;;5032579;28;19917;-58
2023/04/08 06:21:36;;;;;;;;;;;13.00;49.20;;;;;;5032509;28;20289;-59
2023/04/08 06:24:01;;;;;;;;;;;13.00;49.10;;;;;;5032452;28;19980;-58
2023/04/08 06:26:27;;;;;;;;;;;13.10;49.10;;;;;;5032622;28;19913;-59
2023/04/08 06:28:52;;;;;;;;;;;13.10;49.20;;;;;;5032299;28;20003;-62
2023/04/08 06:31:18;;;;;;;;;;;13.00;49.20;;;;;;5032801;28;19956;-59
2023/04/08 06:33:43;;;;;;;;;;;13.00;49.30;;;;;;5032657;28;19924;-58
2023/04/08 06:36:09;;;;;;;;;;;13.00;49.40;;;;;;5046748;28;19913;-57
2023/04/08 06:38:35;;;;;;;;;;;13.10;49.50;;;;;;5051837;28;19921;-58
2023/04/08 06:41:04;;;;;;;;;;;13.10;49.50;;;;;;5052302;28;19996;-57
2023/04/08 06:43:30;;;;;;;;;;;13.20;49.50;;;;;;5051978;28;19917;-58
2023/04/08 06:45:56;;;;;;;;;;;13.20;49.50;;;;;;5052147;28;19954;-57
2023/04/08 06:48:22;;;;;;;;;;;13.10;49.50;;;;;;5052234;28;19923;-58
2023/04/08 06:50:48;;;;;;;;;;;13.20;49.60;;;;;;5052075;28;19912;-58
2023/04/08 06:53:14;;;;;;;;;;;13.20;49.60;;;;;;5051929;28;19917;-58
2023/04/08 06:55:39;;;;;;;;;;;13.20;49.60;;;;;;5052022;28;19924;-58
2023/04/08 06:58:07;;;;;;;;;;;13.20;49.50;;;;;;5051952;28;20307;-59
2023/04/08 07:00:32;;;;;;;;;;;13.30;49.40;;;;;;5038295;28;19913;-60
2023/04/08 07:02:58;;;;;;;;;;;13.30;49.40;;;;;;5032054;28;19958;-59
2023/04/08 07:05:23;;;;;;;;;;;13.40;49.30;;;;;;5032135;28;19914;-58
2023/04/08 07:07:49;;;;;;;;;;;13.50;49.20;;;;;;5031942;28;19917;-60
2023/04/08 07:10:15;;;;;;;;;;;13.60;49.00;;;;;;5032131;28;19913;-58
2023/04/08 07:12:40;;;;;;;;;;;13.70;48.80;;;;;;5031778;28;19963;-58
2023/04/08 07:15:06;;;;;;;;;;;13.70;48.60;;;;;;5031905;28;19995;-58
2023/04/08 07:17:31;;;;;;;;;;;13.80;48.50;;;;;;5031633;28;20317;-58
2023/04/08 07:19:57;;;;;;;;;;;13.80;48.40;;;;;;5031829;28;20009;-59
2023/04/08 07:22:22;;;;;;;;;;;13.90;48.20;;;;;;5031612;28;19913;-58
2023/04/08 07:24:48;;;;;;;;;;;13.90;48.00;;;;;;5031738;28;19917;-59
2023/04/08 07:27:17;;;;;;;;;;;14.00;48.00;;;;;;5031509;28;19921;-56
2023/04/08 07:29:42;;;;;;;;;;;14.00;47.80;;;;;;5031598;28;19917;-58
2023/04/08 07:32:07;;;;;;;;;;;14.00;47.70;;;;;;5031491;28;19932;-59
2023/04/08 07:34:34;;;;;;;;;;;14.00;47.70;;;;;;5033125;28;19979;-57
2023/04/08 07:37:00;;;;;;;;;;;14.10;47.70;;;;;;5051891;28;19912;-59
2023/04/08 07:39:25;;;;;;;;;;;14.20;47.70;;;;;;5051453;28;20011;-58
2023/04/08 07:41:51;;;;;;;;;;;14.30;47.70;;;;;;5051890;28;19916;-58
2023/04/08 07:44:16;;;;;;;;;;;14.40;47.60;;;;;;5051359;28;20350;-58
2023/04/08 07:46:44;;;;;;;;;;;14.40;47.40;;;;;;5051596;28;19913;-58
2023/04/08 07:49:09;;;;;;;;;;;14.50;47.10;;;;;;5051102;28;20313;-59
2023/04/08 07:51:35;;;;;;;;;;;14.60;46.90;;;;;;5053958;28;19913;-58
2023/04/08 07:54:00;;;;;;;;;;;14.60;46.70;;;;;;5055179;28;19913;-60
2023/04/08 07:56:26;;;;;;;;;;;14.60;46.60;;;;;;5055314;28;20360;-58
2023/04/08 07:58:52;;;;;;;;;;;14.50;46.60;;;;;;5055080;28;19912;-58
2023/04/08 08:01:19;;;;;;;;;;;14.50;46.70;;;;;;5015867;28;19985;-62
2023/04/08 08:03:46;;;;;;;;;;;14.50;46.80;;;;;;5015320;28;19913;-59
2023/04/08 08:06:11;;;;;;;;;;;14.50;46.90;;;;;;5015390;28;19913;-58
2023/04/08 08:08:37;;;;;;;;;;;14.50;46.90;;;;;;5015480;28;20009;-59
2023/04/08 08:11:02;;;;;;;;;;;14.60;47.10;;;;;;5015412;28;19913;-58
2023/04/08 08:13:28;;;;;;;;;;;14.70;47.20;;;;;;5015236;28;19913;-58
2023/04/08 08:15:53;;;;;;;;;;;14.70;47.10;;;;;;5015248;28;19961;-62
2023/04/08 08:18:19;;;;;;;;;;;14.80;47.00;;;;;;5015148;28;19963;-58
2023/04/08 08:20:44;;;;;;;;;;;14.90;47.00;;;;;;5015041;28;19963;-58
2023/04/08 08:23:10;;;;;;;;;;;15.00;47.10;;;;;;5015255;28;19914;-57
2023/04/08 08:25:35;;;;;;;;;;;15.20;47.00;;;;;;5015266;28;20000;-58
2023/04/08 08:28:01;;;;;;;;;;;15.40;46.80;;;;;;5014864;28;19921;-59
2023/04/08 08:30:26;;;;;;;;;;;15.60;46.30;;;;;;5015112;28;19960;-58
2023/04/08 08:32:51;;;;;;;;;;;15.80;45.70;;;;;;5016127;28;20289;-58
2023/04/08 08:35:17;;;;;;;;;;;15.80;45.60;;;;;;5026927;28;19939;-59
2023/04/08 08:37:42;;;;;;;;;;;15.90;45.50;;;;;;5034535;28;19913;-57
2023/04/08 08:40:08;;;;;;;;;;;16.00;45.50;;;;;;5034526;28;19921;-57
2023/04/08 08:42:34;;;;;;;;;;;16.20;45.50;;;;;;5034469;28;19913;-58
2023/04/08 08:45:03;;;;;;;;;;;16.40;45.20;;;;;;5034594;28;19917;-59
2023/04/08 08:47:29;;;;;;;;;;;16.70;44.50;;;;;;5034397;28;19971;-59
2023/04/08 08:49:55;;;;;;;;;;;16.80;44.00;;;;;;5034289;28;19971;-59
2023/04/08 08:52:20;;;;;;;;;;;16.90;43.90;;;;;;5033274;28;20364;-57
2023/04/08 08:54:46;;;;;;;;;;;17.10;43.70;;;;;;5032997;28;19914;-59
2023/04/08 08:57:18;;;;;;;;;;;17.20;43.50;;;;;;5034220;28;19936;-58
2023/04/08 08:59:49;;;;;;;;;;;17.40;43.30;;;;;;5034460;28;19917;-57
2023/04/08 09:02:25;;;;;;;;;;;17.50;43.00;;;;;;5034292;28;20284;-58
2023/04/08 09:05:03;;;;;;;;;;;17.70;42.50;;;;;;5034259;28;19913;-58
2023/04/08 09:07:30;;;;;;;;;;;17.80;42.20;;;;;;5020294;28;19913;-59
2023/04/08 09:09:56;;;;;;;;;;;18.00;41.70;;;;;;5021167;28;19968;-60
2023/04/08 09:12:22;;;;;;;;;;;18.00;41.30;;;;;;5018919;28;19913;-60
2023/04/08 09:14:47;;;;;;;;;;;18.00;41.30;;;;;;5021101;28;20273;-59
2023/04/08 09:17:13;;;;;;;;;;;18.10;41.10;;;;;;5033616;28;19932;-58
2023/04/08 09:19:39;;;;;;;;;;;18.20;41.40;;;;;;5024255;28;20360;-58
2023/04/08 09:22:06;;;;;;;;;;;18.30;41.20;;;;;;5017360;28;19914;-58
2023/04/08 09:24:31;;;;;;;;;;;18.40;41.10;;;;;;5023333;28;19976;-58
2023/04/08 09:26:57;;;;;;;;;;;18.50;40.60;;;;;;5033217;28;19959;-57
2023/04/08 09:29:23;;;;;;;;;;;18.50;40.10;;;;;;5032038;28;19928;-59
2023/04/08 09:31:52;;;;;;;;;;;18.50;40.20;;;;;;5032993;28;20004;-58
2023/04/08 09:34:22;;;;;;;;;;;18.70;40.30;;;;;;5032000;28;19917;-59
2023/04/08 09:36:48;;;;;;;;;;;18.80;40.50;;;;;;5037483;28;20095;-58
2023/04/08 09:39:13;;;;;;;;;;;19.00;40.00;;;;;;5031187;28;19920;-58
2023/04/08 09:41:39;;;;;;;;;;;19.10;39.70;;;;;;5029915;28;19913;-58
2023/04/08 09:44:06;;;;;;;;;;;19.20;39.70;;;;;;5031193;28;19913;-58
2023/04/08 09:46:32;;;;;;;;;;;19.30;39.60;;;;;;5028812;28;19913;-58
2023/04/08 09:49:03;;;;;;;;;;;19.50;39.20;;;;;;5031522;28;19921;-59
2023/04/08 09:51:32;;;;;;;;;;;19.80;39.00;;;;;;5032977;28;19967;-59
2023/04/08 09:54:02;;;;;;;;;;;20.20;38.40;;;;;;5032681;28;19967;-59
2023/04/08 09:56:34;;;;;;;;;;;20.30;37.90;;;;;;5027790;28;19917;-59
2023/04/08 09:59:02;;;;;;;;;;;20.20;38.00;;;;;;5012741;28;20262;-56
2023/04/08 10:01:31;;;;;;;;;;;20.20;38.00;;;;;;5022682;28;19992;-60
2023/04/08 10:03:57;;;;;;;;;;;20.10;38.00;;;;;;5032194;28;19917;-59
2023/04/08 10:06:27;;;;;;;;;;;19.90;37.70;;;;;;5014927;28;20318;-60
2023/04/08 10:08:53;;;;;;;;;;;19.80;37.40;;;;;;5028472;28;19923;-59
2023/04/08 10:11:18;;;;;;;;;;;19.60;37.50;;;;;;5037296;28;19917;-59
2023/04/08 10:13:44;;;;;;;;;;;19.40;37.70;;;;;;5024047;28;19928;-59
2023/04/08 10:16:16;;;;;;;;;;;19.20;38.10;;;;;;5032631;28;20448;-59
2023/04/08 10:18:43;;;;;;;;;;;19.00;38.50;;;;;;5032319;28;19967;-57
2023/04/08 10:21:27;;;;;;;;;;;18.80;38.80;;;;;;5040510;28;19941;-58
2023/04/08 10:23:54;;;;;;;;;;;18.80;39.20;;;;;;5021530;28;19952;-57
2023/04/08 10:26:30;;;;;;;;;;;18.70;39.50;;;;;;5032307;28;20420;-57
2023/04/08 10:29:16;;;;;;;;;;;18.60;39.70;;;;;;5032138;28;20677;-58
2023/04/08 10:31:41;;;;;;;;;;;18.60;39.80;;;;;;5019491;28;19917;-58
2023/04/08 10:34:16;;;;;;;;;;;18.50;39.70;;;;;;5021781;28;19918;-58
2023/04/08 10:36:43;;;;;;;;;;;18.60;39.80;;;;;;5014776;28;20390;-59
2023/04/08 10:39:08;;;;;;;;;;;18.50;39.90;;;;;;5011083;28;19918;-58
2023/04/08 10:41:34;;;;;;;;;;;18.50;39.80;;;;;;5011403;28;20004;-58
2023/04/08 10:44:02;;;;;;;;;;;18.50;40.00;;;;;;5012180;28;19922;-58
2023/04/08 10:46:28;;;;;;;;;;;18.40;40.10;;;;;;5012232;28;19914;-58
2023/04/08 10:49:00;;;;;;;;;;;18.40;40.30;;;;;;5012039;28;19925;-57
2023/04/08 10:51:30;;;;;;;;;;;18.30;40.10;;;;;;5012516;28;19913;-58
2023/04/08 10:54:04;;;;;;;;;;;18.30;40.20;;;;;;5012092;28;19913;-58
2023/04/08 10:56:29;;;;;;;;;;;18.20;40.40;;;;;;5012566;28;20395;-58
2023/04/08 10:58:55;;;;;;;;;;;18.10;40.50;;;;;;5011977;28;19996;-58
2023/04/08 11:01:21;;;;;;;;;;;18.00;40.50;;;;;;5012436;28;19913;-58
2023/04/08 11:03:47;;;;;;;;;;;17.90;40.80;;;;;;5012000;28;19913;-58
2023/04/08 11:06:12;;;;;;;;;;;17.80;41.10;;;;;;5012279;28;19914;-58
2023/04/08 11:08:38;;;;;;;;;;;17.80;41.30;;;;;;5011977;28;19925;-58
2023/04/08 11:11:07;;;;;;;;;;;17.70;41.30;;;;;;5011955;28;19921;-57
2023/04/08 11:13:34;;;;;;;;;;;17.70;41.30;;;;;;5011875;28;20393;-58
2023/04/08 11:16:01;;;;;;;;;;;17.60;41.50;;;;;;5013873;28;20253;-58
2023/04/08 11:18:27;;;;;;;;;;;17.70;41.80;;;;;;5028006;28;20380;-58
2023/04/08 11:20:53;;;;;;;;;;;17.70;41.80;;;;;;5031012;28;19917;-58
2023/04/08 11:23:18;;;;;;;;;;;17.80;42.00;;;;;;5031413;28;19913;-59
2023/04/08 11:25:45;;;;;;;;;;;17.90;42.00;;;;;;5030451;28;19913;-58
2023/04/08 11:28:11;;;;;;;;;;;18.00;41.70;;;;;;5028193;28;19983;-59
2023/04/08 11:30:38;;;;;;;;;;;18.00;41.60;;;;;;5031254;28;20337;-58
2023/04/08 11:33:03;;;;;;;;;;;18.00;41.40;;;;;;5031134;28;20277;-60
2023/04/08 11:35:29;;;;;;;;;;;18.00;41.50;;;;;;5039925;28;19916;-59
2023/04/08 11:37:55;;;;;;;;;;;17.90;41.50;;;;;;5021349;28;19928;-59
2023/04/08 11:40:21;;;;;;;;;;;17.80;41.70;;;;;;5030066;28;19921;-58
2023/04/08 11:42:46;;;;;;;;;;;17.80;41.90;;;;;;5031249;28;19966;-58
2023/04/08 11:45:13;;;;;;;;;;;17.80;41.80;;;;;;5031261;28;19977;-58
2023/04/08 11:47:39;;;;;;;;;;;17.80;41.90;;;;;;5027533;28;19928;-58
2023/04/08 11:50:05;;;;;;;;;;;17.90;42.00;;;;;;5031036;28;19921;-59
2023/04/08 11:52:40;;;;;;;;;;;18.10;42.10;;;;;;5030725;28;20004;-59
2023/04/08 11:55:06;;;;;;;;;;;18.20;41.70;;;;;;5031083;28;19920;-59
2023/04/08 11:57:31;;;;;;;;;;;18.20;41.60;;;;;;5027171;28;20365;-58
2023/04/08 11:59:57;;;;;;;;;;;18.20;41.70;;;;;;5030508;28;19917;-59
2023/04/08 12:02:22;;;;;;;;;;;18.30;42.00;;;;;;5030615;28;19913;-58
2023/04/08 12:04:48;;;;;;;;;;;18.60;41.90;;;;;;5031201;28;19913;-59
2023/04/08 12:07:13;;;;;;;;;;;18.90;41.50;;;;;;5025644;28;20039;-58
2023/04/08 12:09:39;;;;;;;;;;;19.20;40.90;;;;;;5030352;28;19921;-58
2023/04/08 12:12:04;;;;;;;;;;;19.60;40.70;;;;;;5030598;28;19910;-59
2023/04/08 12:14:30;;;;;;;;;;;19.70;39.50;;;;;;5030941;28;19921;-63
2023/04/08 12:16:55;;;;;;;;;;;19.80;39.30;;;;;;5027206;28;20359;-64
2023/04/08 12:19:21;;;;;;;;;;;19.80;39.20;;;;;;5031255;28;19917;-59
2023/04/08 12:21:46;;;;;;;;;;;19.80;39.30;;;;;;5030226;28;19909;-59
2023/04/08 12:24:12;;;;;;;;;;;19.80;39.10;;;;;;5030699;28;19916;-60
2023/04/08 12:26:37;;;;;;;;;;;19.70;38.90;;;;;;5030612;28;20376;-59
2023/04/08 12:29:02;;;;;;;;;;;19.60;39.10;;;;;;5030280;28;19921;-58
2023/04/08 12:31:28;;;;;;;;;;;19.50;39.00;;;;;;5030957;28;19917;-58
2023/04/08 12:33:53;;;;;;;;;;;19.40;39.20;;;;;;5030933;28;19916;-59
2023/04/08 12:36:19;;;;;;;;;;;19.30;39.30;;;;;;5047357;28;19917;-65
2023/04/08 12:38:44;;;;;;;;;;;19.20;39.60;;;;;;5046889;28;19955;-59
2023/04/08 12:41:10;;;;;;;;;;;19.30;39.90;;;;;;5024318;28;20323;-59
2023/04/08 12:43:35;;;;;;;;;;;19.30;39.60;;;;;;5033211;28;19975;-58
2023/04/08 12:46:02;;;;;;;;;;;19.30;39.60;;;;;;5033790;28;20262;-59
2023/04/08 12:48:27;;;;;;;;;;;19.30;39.50;;;;;;5033820;28;20273;-57
2023/04/08 12:50:52;;;;;;;;;;;19.20;39.50;;;;;;5048842;28;19913;-58
2023/04/08 12:53:18;;;;;;;;;;;19.10;39.60;;;;;;5032809;28;19943;-60
2023/04/08 12:55:43;;;;;;;;;;;19.00;39.70;;;;;;5015332;28;20000;-59
2023/04/08 12:58:11;;;;;;;;;;;18.90;40.00;;;;;;5024280;28;19964;-58
2023/04/08 13:00:36;;;;;;;;;;;18.80;40.30;;;;;;5015763;28;19963;-57
2023/04/08 13:03:02;;;;;;;;;;;18.70;40.40;;;;;;5016736;28;19913;-58
2023/04/08 13:05:28;;;;;;;;;;;18.70;40.50;;;;;;5014906;28;19921;-65
2023/04/08 13:07:53;;;;;;;;;;;18.70;40.60;;;;;;5020061;28;19921;-57
2023/04/08 13:10:19;;;;;;;;;;;18.60;40.60;;;;;;5017501;28;19917;-63
2023/04/08 13:12:44;;;;;;;;;;;18.60;40.70;;;;;;5047036;28;19920;-59
2023/04/08 13:15:10;;;;;;;;;;;18.50;40.80;;;;;;5032261;28;19921;-58
2023/04/08 13:17:37;;;;;;;;;;;18.50;40.90;;;;;;5030929;28;19913;-58
2023/04/08 13:20:03;;;;;;;;;;;18.50;41.10;;;;;;5032548;28;19913;-63
2023/04/08 13:22:29;;;;;;;;;;;18.50;41.30;;;;;;5033465;28;19971;-59
2023/04/08 13:24:54;;;;;;;;;;;18.60;41.30;;;;;;5031685;28;19921;-59
2023/04/08 13:27:20;;;;;;;;;;;18.60;41.20;;;;;;5026589;28;19917;-59
2023/04/08 13:29:45;;;;;;;;;;;18.50;41.20;;;;;;5032175;28;20280;-59
2023/04/08 13:32:11;;;;;;;;;;;18.50;41.20;;;;;;5032183;28;20004;-59
2023/04/08 13:34:36;;;;;;;;;;;18.50;41.20;;;;;;5021464;28;20381;-59
2023/04/08 13:37:02;;;;;;;;;;;18.40;41.30;;;;;;5034424;28;19920;-60
2023/04/08 13:39:27;;;;;;;;;;;18.40;41.50;;;;;;5031247;28;20397;-60
2023/04/08 13:41:53;;;;;;;;;;;18.40;41.60;;;;;;5028789;28;20043;-60
2023/04/08 13:44:18;;;;;;;;;;;18.30;41.40;;;;;;5025912;28;20003;-59
2023/04/08 13:46:44;;;;;;;;;;;18.20;41.60;;;;;;5024316;28;19974;-60
2023/04/08 13:49:09;;;;;;;;;;;18.20;41.70;;;;;;5031035;28;19924;-59
2023/04/08 13:51:35;;;;;;;;;;;18.20;41.80;;;;;;5032133;28;19917;-59
2023/04/08 13:54:00;;;;;;;;;;;18.20;41.90;;;;;;5031799;28;20004;-59
2023/04/08 13:56:26;;;;;;;;;;;18.20;42.10;;;;;;5030129;28;19913;-59
2023/04/08 13:58:51;;;;;;;;;;;18.20;42.10;;;;;;5028815;28;19913;-60
2023/04/08 14:01:17;;;;;;;;;;;18.30;42.20;;;;;;5034344;28;19928;-59
2023/04/08 14:03:42;;;;;;;;;;;18.30;42.20;;;;;;5031109;28;19913;-62
2023/04/08 14:06:08;;;;;;;;;;;18.50;42.10;;;;;;5031476;28;19952;-57
2023/04/08 14:08:33;;;;;;;;;;;18.70;41.90;;;;;;5025938;28;20019;-58
2023/04/08 14:10:58;;;;;;;;;;;19.00;41.70;;;;;;5031552;28;19917;-58